Terminal Aerodrome Forecast
Issued by NWS

Home | Current Version | Previous Version | Graphics & Text | Print | Product List | Glossary On
Versions: 1 2 3 4 5 6 7 8 9 10 11 12 13 14 15 16 17 18
000
FTUS43 KMPX 261700
TAFRNH
TAF
KRNH 261720Z 2618/2718 25004KT P6SM SCT025 SCT120
     FM270000 23007KT P6SM SCT120
     FM270200 26006KT P6SM VCSH SCT050 BKN250
     FM270400 27009KT P6SM SCT050 BKN100
     FM271200 29012G18KT P6SM BKN020 OVC035
     FM271500 32015G25KT P6SM -SHRA BKN025 OVC040=

USA.gov is the U.S. government's official web portal to all federal, state and local government web resources and services.